sensor_id;sensor_type;location;lat;lon;timestamp;P1;durP1;ratioP1;P2;durP2;ratioP2
13487;SDS011;6816;48.506;9.050;2023-05-10T00:02:57;3.40;;;0.50;;
13487;SDS011;6816;48.506;9.050;2023-05-10T00:05:58;1.80;;;0.40;;
13487;SDS011;6816;48.506;9.050;2023-05-10T00:08:58;0.70;;;0.40;;
13487;SDS011;6816;48.506;9.050;2023-05-10T00:11:59;0.33;;;0.30;;
13487;SDS011;6816;48.506;9.050;2023-05-10T00:15:00;0.30;;;0.30;;
13487;SDS011;6816;48.506;9.050;2023-05-10T00:18:00;0.40;;;0.40;;
13487;SDS011;6816;48.506;9.050;2023-05-10T00:21:01;0.30;;;0.30;;
13487;SDS011;6816;48.506;9.050;2023-05-10T00:24:02;0.30;;;0.30;;
13487;SDS011;6816;48.506;9.050;2023-05-10T00:27:02;1.60;;;0.43;;
13487;SDS011;6816;48.506;9.050;2023-05-10T00:30:04;2.33;;;0.20;;
13487;SDS011;6816;48.506;9.050;2023-05-10T00:33:05;0.30;;;0.30;;
13487;SDS011;6816;48.506;9.050;2023-05-10T00:36:06;1.50;;;0.20;;
13487;SDS011;6816;48.506;9.050;2023-05-10T00:39:07;0.97;;;0.30;;
13487;SDS011;6816;48.506;9.050;2023-05-10T00:42:08;0.77;;;0.20;;
13487;SDS011;6816;48.506;9.050;2023-05-10T00:45:08;1.17;;;0.10;;
13487;SDS011;6816;48.506;9.050;2023-05-10T00:48:09;1.00;;;0.27;;
13487;SDS011;6816;48.506;9.050;2023-05-10T00:51:10;1.17;;;0.30;;
13487;SDS011;6816;48.506;9.050;2023-05-10T00:54:11;1.30;;;0.33;;
13487;SDS011;6816;48.506;9.050;2023-05-10T00:57:13;0.60;;;0.30;;
13487;SDS011;6816;48.506;9.050;2023-05-10T01:00:14;0.10;;;0.10;;
13487;SDS011;6816;48.506;9.050;2023-05-10T01:03:18;0.10;;;0.10;;
13487;SDS011;6816;48.506;9.050;2023-05-10T01:06:19;0.63;;;0.20;;
13487;SDS011;6816;48.506;9.050;2023-05-10T01:09:21;1.97;;;0.10;;
13487;SDS011;6816;48.506;9.050;2023-05-10T01:12:35;0.10;;;0.10;;
13487;SDS011;6816;48.506;9.050;2023-05-10T01:27:47;0.57;;;0.20;;
13487;SDS011;6816;48.506;9.050;2023-05-10T01:31:18;0.10;;;0.10;;
13487;SDS011;6816;48.506;9.050;2023-05-10T01:34:35;1.57;;;0.30;;
13487;SDS011;6816;48.506;9.050;2023-05-10T01:37:59;0.97;;;0.20;;
13487;SDS011;6816;48.506;9.050;2023-05-10T01:48:16;0.70;;;0.30;;
13487;SDS011;6816;48.506;9.050;2023-05-10T01:51:21;1.00;;;0.20;;
13487;SDS011;6816;48.506;9.050;2023-05-10T01:54:25;2.33;;;0.30;;
13487;SDS011;6816;48.506;9.050;2023-05-10T01:57:32;2.07;;;0.20;;
13487;SDS011;6816;48.506;9.050;2023-05-10T02:00:35;0.70;;;0.10;;
13487;SDS011;6816;48.506;9.050;2023-05-10T02:03:49;0.20;;;0.20;;
13487;SDS011;6816;48.506;9.050;2023-05-10T02:10:53;0.57;;;0.10;;
13487;SDS011;6816;48.506;9.050;2023-05-10T02:14:09;0.37;;;0.20;;
13487;SDS011;6816;48.506;9.050;2023-05-10T02:17:14;4.73;;;0.30;;
13487;SDS011;6816;48.506;9.050;2023-05-10T02:20:17;5.80;;;1.37;;
13487;SDS011;6816;48.506;9.050;2023-05-10T02:23:21;0.10;;;0.10;;
13487;SDS011;6816;48.506;9.050;2023-05-10T02:26:23;0.33;;;0.20;;
13487;SDS011;6816;48.506;9.050;2023-05-10T02:29:25;0.30;;;0.20;;
13487;SDS011;6816;48.506;9.050;2023-05-10T02:32:28;0.20;;;0.20;;
13487;SDS011;6816;48.506;9.050;2023-05-10T02:35:30;0.57;;;0.20;;
13487;SDS011;6816;48.506;9.050;2023-05-10T02:38:33;1.40;;;0.20;;
13487;SDS011;6816;48.506;9.050;2023-05-10T02:41:36;0.30;;;0.20;;
13487;SDS011;6816;48.506;9.050;2023-05-10T02:44:38;1.30;;;0.23;;
13487;SDS011;6816;48.506;9.050;2023-05-10T02:47:41;1.27;;;0.20;;
13487;SDS011;6816;48.506;9.050;2023-05-10T02:50:44;0.97;;;0.40;;
13487;SDS011;6816;48.506;9.050;2023-05-10T02:53:46;0.40;;;0.40;;
13487;SDS011;6816;48.506;9.050;2023-05-10T02:56:58;0.40;;;0.40;;
13487;SDS011;6816;48.506;9.050;2023-05-10T03:00:04;0.73;;;0.33;;
13487;SDS011;6816;48.506;9.050;2023-05-10T03:03:05;1.07;;;0.40;;
13487;SDS011;6816;48.506;9.050;2023-05-10T03:06:06;1.13;;;0.30;;
13487;SDS011;6816;48.506;9.050;2023-05-10T03:09:07;1.70;;;0.30;;
13487;SDS011;6816;48.506;9.050;2023-05-10T03:12:11;0.30;;;0.30;;
13487;SDS011;6816;48.506;9.050;2023-05-10T03:18:33;0.40;;;0.40;;
13487;SDS011;6816;48.506;9.050;2023-05-10T03:21:44;0.30;;;0.30;;
13487;SDS011;6816;48.506;9.050;2023-05-10T03:24:52;0.53;;;0.33;;
13487;SDS011;6816;48.506;9.050;2023-05-10T03:27:56;1.17;;;0.40;;
13487;SDS011;6816;48.506;9.050;2023-05-10T03:31:02;1.33;;;0.50;;
13487;SDS011;6816;48.506;9.050;2023-05-10T03:34:23;0.57;;;0.30;;
13487;SDS011;6816;48.506;9.050;2023-05-10T03:37:25;0.50;;;0.27;;
13487;SDS011;6816;48.506;9.050;2023-05-10T03:40:33;1.23;;;0.37;;
13487;SDS011;6816;48.506;9.050;2023-05-10T03:43:57;0.63;;;0.60;;
13487;SDS011;6816;48.506;9.050;2023-05-10T03:46:59;0.60;;;0.37;;
13487;SDS011;6816;48.506;9.050;2023-05-10T03:53:15;0.53;;;0.50;;
13487;SDS011;6816;48.506;9.050;2023-05-10T03:56:58;0.77;;;0.50;;
13487;SDS011;6816;48.506;9.050;2023-05-10T04:00:11;1.90;;;0.67;;
13487;SDS011;6816;48.506;9.050;2023-05-10T04:06:20;0.50;;;0.50;;
13487;SDS011;6816;48.506;9.050;2023-05-10T04:09:23;0.80;;;0.50;;
13487;SDS011;6816;48.506;9.050;2023-05-10T04:12:23;1.93;;;0.60;;
13487;SDS011;6816;48.506;9.050;2023-05-10T04:15:24;0.83;;;0.60;;
13487;SDS011;6816;48.506;9.050;2023-05-10T04:18:26;1.33;;;0.40;;
13487;SDS011;6816;48.506;9.050;2023-05-10T04:24:34;1.37;;;0.60;;
13487;SDS011;6816;48.506;9.050;2023-05-10T04:27:34;1.43;;;0.57;;
13487;SDS011;6816;48.506;9.050;2023-05-10T04:30:35;0.77;;;0.70;;
13487;SDS011;6816;48.506;9.050;2023-05-10T04:33:36;0.90;;;0.90;;
13487;SDS011;6816;48.506;9.050;2023-05-10T04:36:37;2.03;;;0.60;;
13487;SDS011;6816;48.506;9.050;2023-05-10T04:39:37;2.47;;;0.90;;
13487;SDS011;6816;48.506;9.050;2023-05-10T04:42:39;1.73;;;0.60;;
13487;SDS011;6816;48.506;9.050;2023-05-10T04:45:41;0.40;;;0.40;;
13487;SDS011;6816;48.506;9.050;2023-05-10T04:48:41;0.70;;;0.47;;
13487;SDS011;6816;48.506;9.050;2023-05-10T04:51:42;0.87;;;0.50;;
13487;SDS011;6816;48.506;9.050;2023-05-10T04:54:43;0.40;;;0.40;;
13487;SDS011;6816;48.506;9.050;2023-05-10T04:57:43;0.43;;;0.40;;
13487;SDS011;6816;48.506;9.050;2023-05-10T05:00:44;0.60;;;0.60;;
13487;SDS011;6816;48.506;9.050;2023-05-10T05:03:45;0.40;;;0.40;;
13487;SDS011;6816;48.506;9.050;2023-05-10T05:06:46;0.50;;;0.40;;
13487;SDS011;6816;48.506;9.050;2023-05-10T05:09:47;0.67;;;0.60;;
13487;SDS011;6816;48.506;9.050;2023-05-10T05:16:52;0.80;;;0.50;;
13487;SDS011;6816;48.506;9.050;2023-05-10T05:19:53;0.60;;;0.50;;
13487;SDS011;6816;48.506;9.050;2023-05-10T05:22:54;3.00;;;0.60;;
13487;SDS011;6816;48.506;9.050;2023-05-10T05:25:54;3.67;;;0.60;;
13487;SDS011;6816;48.506;9.050;2023-05-10T05:28:55;0.70;;;0.50;;
13487;SDS011;6816;48.506;9.050;2023-05-10T05:31:56;2.60;;;0.60;;
13487;SDS011;6816;48.506;9.050;2023-05-10T05:34:56;3.63;;;0.50;;
13487;SDS011;6816;48.506;9.050;2023-05-10T05:37:57;3.10;;;0.80;;
13487;SDS011;6816;48.506;9.050;2023-05-10T05:40:58;1.67;;;0.57;;
13487;SDS011;6816;48.506;9.050;2023-05-10T05:44:01;3.50;;;0.60;;
13487;SDS011;6816;48.506;9.050;2023-05-10T05:47:04;0.90;;;0.90;;
13487;SDS011;6816;48.506;9.050;2023-05-10T05:50:06;0.67;;;0.67;;
13487;SDS011;6816;48.506;9.050;2023-05-10T05:53:07;2.37;;;0.80;;
13487;SDS011;6816;48.506;9.050;2023-05-10T05:56:09;0.87;;;0.70;;
13487;SDS011;6816;48.506;9.050;2023-05-10T05:59:10;1.00;;;0.70;;
13487;SDS011;6816;48.506;9.050;2023-05-10T06:02:11;2.30;;;1.20;;
13487;SDS011;6816;48.506;9.050;2023-05-10T06:05:12;1.30;;;1.00;;
13487;SDS011;6816;48.506;9.050;2023-05-10T06:08:13;1.10;;;0.87;;
13487;SDS011;6816;48.506;9.050;2023-05-10T06:11:14;2.93;;;1.00;;
13487;SDS011;6816;48.506;9.050;2023-05-10T06:14:15;1.30;;;0.90;;
13487;SDS011;6816;48.506;9.050;2023-05-10T06:17:15;0.70;;;0.57;;
13487;SDS011;6816;48.506;9.050;2023-05-10T06:20:16;0.70;;;0.70;;
13487;SDS011;6816;48.506;9.050;2023-05-10T06:23:17;1.73;;;0.80;;
13487;SDS011;6816;48.506;9.050;2023-05-10T06:26:18;0.80;;;0.80;;
13487;SDS011;6816;48.506;9.050;2023-05-10T06:29:18;1.93;;;0.70;;
13487;SDS011;6816;48.506;9.050;2023-05-10T06:32:19;0.70;;;0.63;;
13487;SDS011;6816;48.506;9.050;2023-05-10T06:35:20;0.70;;;0.63;;
13487;SDS011;6816;48.506;9.050;2023-05-10T06:38:21;1.17;;;0.67;;
13487;SDS011;6816;48.506;9.050;2023-05-10T06:41:21;0.80;;;0.67;;
13487;SDS011;6816;48.506;9.050;2023-05-10T06:44:23;0.70;;;0.60;;
13487;SDS011;6816;48.506;9.050;2023-05-10T06:47:24;2.17;;;0.90;;
13487;SDS011;6816;48.506;9.050;2023-05-10T06:50:25;1.30;;;0.60;;
13487;SDS011;6816;48.506;9.050;2023-05-10T06:53:26;1.57;;;0.70;;
13487;SDS011;6816;48.506;9.050;2023-05-10T06:56:26;0.90;;;0.67;;
13487;SDS011;6816;48.506;9.050;2023-05-10T06:59:27;4.83;;;0.60;;
13487;SDS011;6816;48.506;9.050;2023-05-10T07:02:27;1.50;;;0.73;;
13487;SDS011;6816;48.506;9.050;2023-05-10T07:05:28;0.43;;;0.43;;
13487;SDS011;6816;48.506;9.050;2023-05-10T07:08:35;0.90;;;0.60;;
13487;SDS011;6816;48.506;9.050;2023-05-10T07:11:36;0.60;;;0.50;;
13487;SDS011;6816;48.506;9.050;2023-05-10T07:14:37;0.60;;;0.60;;
13487;SDS011;6816;48.506;9.050;2023-05-10T07:17:38;0.50;;;0.50;;
13487;SDS011;6816;48.506;9.050;2023-05-10T07:20:38;1.03;;;0.60;;
13487;SDS011;6816;48.506;9.050;2023-05-10T07:23:39;0.50;;;0.50;;
13487;SDS011;6816;48.506;9.050;2023-05-10T07:26:39;1.23;;;0.53;;
13487;SDS011;6816;48.506;9.050;2023-05-10T07:29:40;0.60;;;0.60;;
13487;SDS011;6816;48.506;9.050;2023-05-10T07:32:41;0.63;;;0.50;;
13487;SDS011;6816;48.506;9.050;2023-05-10T07:35:42;0.50;;;0.50;;
13487;SDS011;6816;48.506;9.050;2023-05-10T07:38:43;0.60;;;0.60;;
13487;SDS011;6816;48.506;9.050;2023-05-10T07:41:43;1.53;;;0.60;;
13487;SDS011;6816;48.506;9.050;2023-05-10T07:44:44;0.53;;;0.50;;
13487;SDS011;6816;48.506;9.050;2023-05-10T07:47:45;1.20;;;0.70;;
13487;SDS011;6816;48.506;9.050;2023-05-10T07:50:46;2.77;;;0.50;;
13487;SDS011;6816;48.506;9.050;2023-05-10T07:53:46;1.47;;;0.57;;
13487;SDS011;6816;48.506;9.050;2023-05-10T07:56:47;0.53;;;0.53;;
13487;SDS011;6816;48.506;9.050;2023-05-10T07:59:48;0.87;;;0.53;;
13487;SDS011;6816;48.506;9.050;2023-05-10T08:02:48;0.60;;;0.60;;
13487;SDS011;6816;48.506;9.050;2023-05-10T08:05:49;0.70;;;0.60;;
13487;SDS011;6816;48.506;9.050;2023-05-10T08:08:50;1.60;;;0.60;;
13487;SDS011;6816;48.506;9.050;2023-05-10T08:11:51;3.60;;;0.60;;
13487;SDS011;6816;48.506;9.050;2023-05-10T08:14:52;0.50;;;0.50;;
13487;SDS011;6816;48.506;9.050;2023-05-10T08:17:52;0.60;;;0.57;;
13487;SDS011;6816;48.506;9.050;2023-05-10T08:20:53;0.73;;;0.60;;
13487;SDS011;6816;48.506;9.050;2023-05-10T08:23:54;1.13;;;0.70;;
13487;SDS011;6816;48.506;9.050;2023-05-10T08:26:54;0.60;;;0.60;;
13487;SDS011;6816;48.506;9.050;2023-05-10T08:29:55;1.07;;;0.70;;
13487;SDS011;6816;48.506;9.050;2023-05-10T08:32:56;0.77;;;0.60;;
13487;SDS011;6816;48.506;9.050;2023-05-10T08:35:56;0.57;;;0.50;;
13487;SDS011;6816;48.506;9.050;2023-05-10T08:38:57;0.83;;;0.50;;
13487;SDS011;6816;48.506;9.050;2023-05-10T08:41:58;0.50;;;0.50;;
13487;SDS011;6816;48.506;9.050;2023-05-10T08:45:01;0.40;;;0.40;;
13487;SDS011;6816;48.506;9.050;2023-05-10T08:48:04;0.50;;;0.50;;
13487;SDS011;6816;48.506;9.050;2023-05-10T08:51:06;0.40;;;0.40;;
13487;SDS011;6816;48.506;9.050;2023-05-10T08:54:09;0.52;;;0.50;;
13487;SDS011;6816;48.506;9.050;2023-05-10T08:57:10;1.20;;;0.97;;
13487;SDS011;6816;48.506;9.050;2023-05-10T09:00:11;0.83;;;0.50;;
13487;SDS011;6816;48.506;9.050;2023-05-10T09:03:13;0.50;;;0.40;;
13487;SDS011;6816;48.506;9.050;2023-05-10T09:06:14;0.70;;;0.40;;
13487;SDS011;6816;48.506;9.050;2023-05-10T09:09:15;0.93;;;0.30;;
13487;SDS011;6816;48.506;9.050;2023-05-10T09:12:17;0.40;;;0.40;;
13487;SDS011;6816;48.506;9.050;2023-05-10T09:15:18;0.80;;;0.30;;
13487;SDS011;6816;48.506;9.050;2023-05-10T09:18:19;0.30;;;0.30;;
13487;SDS011;6816;48.506;9.050;2023-05-10T09:21:20;1.93;;;0.40;;
13487;SDS011;6816;48.506;9.050;2023-05-10T09:24:24;0.50;;;0.50;;
13487;SDS011;6816;48.506;9.050;2023-05-10T09:27:26;2.53;;;0.80;;
13487;SDS011;6816;48.506;9.050;2023-05-10T09:30:30;0.30;;;0.30;;
13487;SDS011;6816;48.506;9.050;2023-05-10T09:33:41;1.33;;;0.30;;
13487;SDS011;6816;48.506;9.050;2023-05-10T09:36:51;1.75;;;0.43;;
13487;SDS011;6816;48.506;9.050;2023-05-10T09:39:53;0.40;;;0.40;;
13487;SDS011;6816;48.506;9.050;2023-05-10T09:45:56;2.33;;;0.30;;
13487;SDS011;6816;48.506;9.050;2023-05-10T09:48:57;2.65;;;0.30;;
13487;SDS011;6816;48.506;9.050;2023-05-10T09:52:02;1.45;;;0.30;;
13487;SDS011;6816;48.506;9.050;2023-05-10T09:55:04;0.68;;;0.40;;
13487;SDS011;6816;48.506;9.050;2023-05-10T09:58:05;0.40;;;0.40;;
13487;SDS011;6816;48.506;9.050;2023-05-10T10:01:11;1.27;;;0.50;;
13487;SDS011;6816;48.506;9.050;2023-05-10T10:04:13;0.40;;;0.40;;
13487;SDS011;6816;48.506;9.050;2023-05-10T10:07:23;0.97;;;0.60;;
13487;SDS011;6816;48.506;9.050;2023-05-10T10:10:27;1.15;;;0.98;;
13487;SDS011;6816;48.506;9.050;2023-05-10T10:13:28;0.77;;;0.57;;
13487;SDS011;6816;48.506;9.050;2023-05-10T10:16:29;1.48;;;0.70;;
13487;SDS011;6816;48.506;9.050;2023-05-10T10:19:32;1.88;;;0.70;;
13487;SDS011;6816;48.506;9.050;2023-05-10T10:22:35;1.85;;;0.52;;
13487;SDS011;6816;48.506;9.050;2023-05-10T10:25:37;1.00;;;0.63;;
13487;SDS011;6816;48.506;9.050;2023-05-10T10:29:04;2.08;;;0.60;;
13487;SDS011;6816;48.506;9.050;2023-05-10T10:36:00;1.20;;;0.60;;
13487;SDS011;6816;48.506;9.050;2023-05-10T10:39:07;0.63;;;0.57;;
13487;SDS011;6816;48.506;9.050;2023-05-10T10:42:09;0.50;;;0.50;;
13487;SDS011;6816;48.506;9.050;2023-05-10T10:45:13;0.70;;;0.70;;
13487;SDS011;6816;48.506;9.050;2023-05-10T10:48:21;1.50;;;0.50;;
13487;SDS011;6816;48.506;9.050;2023-05-10T10:51:22;2.08;;;0.50;;
13487;SDS011;6816;48.506;9.050;2023-05-10T10:54:27;0.60;;;0.60;;
13487;SDS011;6816;48.506;9.050;2023-05-10T10:57:28;0.68;;;0.50;;
13487;SDS011;6816;48.506;9.050;2023-05-10T11:00:35;0.80;;;0.45;;
13487;SDS011;6816;48.506;9.050;2023-05-10T11:03:37;0.20;;;0.20;;
13487;SDS011;6816;48.506;9.050;2023-05-10T11:06:38;0.63;;;0.30;;
13487;SDS011;6816;48.506;9.050;2023-05-10T11:09:40;0.40;;;0.30;;
13487;SDS011;6816;48.506;9.050;2023-05-10T11:12:50;0.40;;;0.40;;
13487;SDS011;6816;48.506;9.050;2023-05-10T11:15:52;0.30;;;0.20;;
13487;SDS011;6816;48.506;9.050;2023-05-10T11:19:04;0.20;;;0.20;;
13487;SDS011;6816;48.506;9.050;2023-05-10T11:22:12;0.60;;;0.33;;
13487;SDS011;6816;48.506;9.050;2023-05-10T11:25:13;0.33;;;0.30;;
13487;SDS011;6816;48.506;9.050;2023-05-10T11:28:14;3.43;;;0.40;;
13487;SDS011;6816;48.506;9.050;2023-05-10T11:31:18;1.63;;;0.70;;
13487;SDS011;6816;48.506;9.050;2023-05-10T11:34:23;0.40;;;0.40;;
13487;SDS011;6816;48.506;9.050;2023-05-10T11:37:33;1.53;;;0.40;;
13487;SDS011;6816;48.506;9.050;2023-05-10T11:40:34;0.30;;;0.30;;
13487;SDS011;6816;48.506;9.050;2023-05-10T11:43:36;0.40;;;0.30;;
13487;SDS011;6816;48.506;9.050;2023-05-10T11:46:38;0.70;;;0.50;;
13487;SDS011;6816;48.506;9.050;2023-05-10T11:49:38;0.97;;;0.47;;
13487;SDS011;6816;48.506;9.050;2023-05-10T11:52:43;1.47;;;0.60;;
13487;SDS011;6816;48.506;9.050;2023-05-10T11:55:43;2.00;;;0.67;;
13487;SDS011;6816;48.506;9.050;2023-05-10T11:58:44;0.80;;;0.80;;
13487;SDS011;6816;48.506;9.050;2023-05-10T12:01:47;0.70;;;0.50;;
13487;SDS011;6816;48.506;9.050;2023-05-10T12:04:48;0.70;;;0.60;;
13487;SDS011;6816;48.506;9.050;2023-05-10T12:07:49;0.87;;;0.57;;
13487;SDS011;6816;48.506;9.050;2023-05-10T12:10:50;1.07;;;0.60;;
13487;SDS011;6816;48.506;9.050;2023-05-10T12:13:51;0.97;;;0.70;;
13487;SDS011;6816;48.506;9.050;2023-05-10T12:16:53;1.70;;;0.70;;
13487;SDS011;6816;48.506;9.050;2023-05-10T12:19:53;0.93;;;0.60;;
13487;SDS011;6816;48.506;9.050;2023-05-10T12:22:55;0.77;;;0.60;;
13487;SDS011;6816;48.506;9.050;2023-05-10T12:26:04;1.70;;;0.68;;
13487;SDS011;6816;48.506;9.050;2023-05-10T12:29:15;2.07;;;0.90;;
13487;SDS011;6816;48.506;9.050;2023-05-10T12:32:17;0.60;;;0.57;;
13487;SDS011;6816;48.506;9.050;2023-05-10T12:35:18;2.30;;;0.77;;
13487;SDS011;6816;48.506;9.050;2023-05-10T12:38:25;0.97;;;0.60;;
13487;SDS011;6816;48.506;9.050;2023-05-10T12:41:29;1.07;;;0.70;;
13487;SDS011;6816;48.506;9.050;2023-05-10T12:44:29;0.60;;;0.60;;
13487;SDS011;6816;48.506;9.050;2023-05-10T12:47:31;0.98;;;0.90;;
13487;SDS011;6816;48.506;9.050;2023-05-10T12:50:32;0.63;;;0.63;;
13487;SDS011;6816;48.506;9.050;2023-05-10T12:53:33;1.13;;;0.80;;
13487;SDS011;6816;48.506;9.050;2023-05-10T12:56:33;1.95;;;0.60;;
13487;SDS011;6816;48.506;9.050;2023-05-10T12:59:34;1.92;;;0.73;;
13487;SDS011;6816;48.506;9.050;2023-05-10T13:02:34;1.10;;;0.93;;
13487;SDS011;6816;48.506;9.050;2023-05-10T13:05:35;1.00;;;0.90;;
13487;SDS011;6816;48.506;9.050;2023-05-10T13:08:36;1.42;;;0.90;;
13487;SDS011;6816;48.506;9.050;2023-05-10T13:11:37;1.95;;;0.90;;
13487;SDS011;6816;48.506;9.050;2023-05-10T13:14:37;0.98;;;0.80;;
13487;SDS011;6816;48.506;9.050;2023-05-10T13:17:40;1.13;;;0.88;;
13487;SDS011;6816;48.506;9.050;2023-05-10T13:20:42;1.25;;;0.60;;
13487;SDS011;6816;48.506;9.050;2023-05-10T13:23:44;1.73;;;0.70;;
13487;SDS011;6816;48.506;9.050;2023-05-10T13:26:44;1.15;;;0.80;;
13487;SDS011;6816;48.506;9.050;2023-05-10T13:29:45;1.35;;;0.68;;
13487;SDS011;6816;48.506;9.050;2023-05-10T13:32:46;1.23;;;0.80;;
13487;SDS011;6816;48.506;9.050;2023-05-10T13:35:46;0.93;;;0.73;;
13487;SDS011;6816;48.506;9.050;2023-05-10T13:38:47;1.45;;;1.00;;
13487;SDS011;6816;48.506;9.050;2023-05-10T13:41:48;1.60;;;0.77;;
13487;SDS011;6816;48.506;9.050;2023-05-10T13:44:49;1.40;;;0.88;;
13487;SDS011;6816;48.506;9.050;2023-05-10T13:47:50;1.25;;;0.75;;
13487;SDS011;6816;48.506;9.050;2023-05-10T13:50:51;1.27;;;0.90;;
13487;SDS011;6816;48.506;9.050;2023-05-10T13:53:52;2.92;;;1.00;;
13487;SDS011;6816;48.506;9.050;2023-05-10T13:56:53;1.10;;;0.70;;
13487;SDS011;6816;48.506;9.050;2023-05-10T13:59:53;2.33;;;1.00;;
13487;SDS011;6816;48.506;9.050;2023-05-10T14:02:54;1.30;;;0.70;;
13487;SDS011;6816;48.506;9.050;2023-05-10T14:05:55;1.15;;;0.80;;
13487;SDS011;6816;48.506;9.050;2023-05-10T14:08:56;0.80;;;0.80;;
13487;SDS011;6816;48.506;9.050;2023-05-10T14:11:56;1.30;;;0.80;;
13487;SDS011;6816;48.506;9.050;2023-05-10T14:14:57;4.40;;;1.00;;
13487;SDS011;6816;48.506;9.050;2023-05-10T14:17:58;1.30;;;0.80;;
13487;SDS011;6816;48.506;9.050;2023-05-10T14:20:59;2.92;;;0.90;;
13487;SDS011;6816;48.506;9.050;2023-05-10T14:23:59;1.10;;;0.80;;
13487;SDS011;6816;48.506;9.050;2023-05-10T14:27:00;1.58;;;0.90;;
13487;SDS011;6816;48.506;9.050;2023-05-10T14:30:01;1.10;;;0.90;;
13487;SDS011;6816;48.506;9.050;2023-05-10T14:33:02;0.88;;;0.75;;
13487;SDS011;6816;48.506;9.050;2023-05-10T14:36:03;1.00;;;0.80;;
13487;SDS011;6816;48.506;9.050;2023-05-10T14:39:03;1.77;;;1.05;;
13487;SDS011;6816;48.506;9.050;2023-05-10T14:42:04;1.15;;;0.70;;
13487;SDS011;6816;48.506;9.050;2023-05-10T14:45:05;1.30;;;1.02;;
13487;SDS011;6816;48.506;9.050;2023-05-10T14:48:06;1.10;;;1.00;;
13487;SDS011;6816;48.506;9.050;2023-05-10T14:51:11;0.90;;;0.70;;
13487;SDS011;6816;48.506;9.050;2023-05-10T14:54:11;1.30;;;0.80;;
13487;SDS011;6816;48.506;9.050;2023-05-10T14:57:12;1.33;;;0.80;;
13487;SDS011;6816;48.506;9.050;2023-05-10T15:00:13;2.30;;;0.90;;
13487;SDS011;6816;48.506;9.050;2023-05-10T15:03:15;0.90;;;0.73;;
13487;SDS011;6816;48.506;9.050;2023-05-10T15:06:16;1.33;;;0.90;;
13487;SDS011;6816;48.506;9.050;2023-05-10T15:09:17;1.10;;;0.90;;
13487;SDS011;6816;48.506;9.050;2023-05-10T15:12:18;1.60;;;0.95;;
13487;SDS011;6816;48.506;9.050;2023-05-10T15:15:19;1.48;;;0.80;;
13487;SDS011;6816;48.506;9.050;2023-05-10T15:18:19;1.15;;;0.80;;
13487;SDS011;6816;48.506;9.050;2023-05-10T15:21:20;2.15;;;0.80;;
13487;SDS011;6816;48.506;9.050;2023-05-10T15:24:21;1.35;;;0.90;;
13487;SDS011;6816;48.506;9.050;2023-05-10T15:27:22;1.00;;;0.90;;
13487;SDS011;6816;48.506;9.050;2023-05-10T15:30:22;1.35;;;0.80;;
13487;SDS011;6816;48.506;9.050;2023-05-10T15:33:23;1.35;;;0.70;;
13487;SDS011;6816;48.506;9.050;2023-05-10T15:36:24;2.28;;;0.88;;
13487;SDS011;6816;48.506;9.050;2023-05-10T15:39:25;1.13;;;0.80;;
13487;SDS011;6816;48.506;9.050;2023-05-10T15:42:25;1.15;;;0.70;;
13487;SDS011;6816;48.506;9.050;2023-05-10T15:45:26;1.52;;;0.70;;
13487;SDS011;6816;48.506;9.050;2023-05-10T15:48:27;0.73;;;0.60;;
13487;SDS011;6816;48.506;9.050;2023-05-10T15:51:27;0.47;;;0.47;;
13487;SDS011;6816;48.506;9.050;2023-05-10T15:54:28;0.93;;;0.60;;
13487;SDS011;6816;48.506;9.050;2023-05-10T15:57:28;0.40;;;0.40;;
13487;SDS011;6816;48.506;9.050;2023-05-10T16:00:29;1.88;;;0.90;;
13487;SDS011;6816;48.506;9.050;2023-05-10T16:03:30;0.73;;;0.70;;
13487;SDS011;6816;48.506;9.050;2023-05-10T16:06:31;1.95;;;0.95;;
13487;SDS011;6816;48.506;9.050;2023-05-10T16:09:33;1.98;;;0.88;;
13487;SDS011;6816;48.506;9.050;2023-05-10T16:12:34;1.05;;;0.80;;
13487;SDS011;6816;48.506;9.050;2023-05-10T16:15:35;1.93;;;1.00;;
13487;SDS011;6816;48.506;9.050;2023-05-10T16:18:36;1.23;;;1.07;;
13487;SDS011;6816;48.506;9.050;2023-05-10T16:21:36;2.30;;;1.00;;
13487;SDS011;6816;48.506;9.050;2023-05-10T16:24:37;2.53;;;0.90;;
13487;SDS011;6816;48.506;9.050;2023-05-10T16:27:38;1.50;;;0.80;;
13487;SDS011;6816;48.506;9.050;2023-05-10T16:30:38;3.27;;;0.93;;
13487;SDS011;6816;48.506;9.050;2023-05-10T16:33:39;1.60;;;0.90;;
13487;SDS011;6816;48.506;9.050;2023-05-10T16:36:40;1.52;;;0.80;;
13487;SDS011;6816;48.506;9.050;2023-05-10T16:39:40;2.33;;;1.00;;
13487;SDS011;6816;48.506;9.050;2023-05-10T16:42:41;2.03;;;0.70;;
13487;SDS011;6816;48.506;9.050;2023-05-10T16:45:42;0.83;;;0.80;;
13487;SDS011;6816;48.506;9.050;2023-05-10T16:48:42;2.00;;;0.90;;
13487;SDS011;6816;48.506;9.050;2023-05-10T16:51:43;2.33;;;0.90;;
13487;SDS011;6816;48.506;9.050;2023-05-10T16:54:44;1.70;;;1.53;;
13487;SDS011;6816;48.506;9.050;2023-05-10T16:57:44;0.93;;;0.80;;
13487;SDS011;6816;48.506;9.050;2023-05-10T17:00:45;2.77;;;0.80;;
13487;SDS011;6816;48.506;9.050;2023-05-10T17:03:45;2.57;;;0.87;;
13487;SDS011;6816;48.506;9.050;2023-05-10T17:06:46;1.17;;;0.90;;
13487;SDS011;6816;48.506;9.050;2023-05-10T17:09:47;0.73;;;0.57;;
13487;SDS011;6816;48.506;9.050;2023-05-10T17:12:47;1.50;;;0.57;;
13487;SDS011;6816;48.506;9.050;2023-05-10T17:15:48;0.50;;;0.50;;
13487;SDS011;6816;48.506;9.050;2023-05-10T17:18:49;1.37;;;0.70;;
13487;SDS011;6816;48.506;9.050;2023-05-10T17:21:49;1.37;;;0.83;;
13487;SDS011;6816;48.506;9.050;2023-05-10T17:24:50;2.30;;;0.70;;
13487;SDS011;6816;48.506;9.050;2023-05-10T17:27:51;0.47;;;0.47;;
13487;SDS011;6816;48.506;9.050;2023-05-10T17:30:55;0.80;;;0.50;;
13487;SDS011;6816;48.506;9.050;2023-05-10T17:33:57;0.50;;;0.50;;
13487;SDS011;6816;48.506;9.050;2023-05-10T17:36:58;0.70;;;0.60;;
13487;SDS011;6816;48.506;9.050;2023-05-10T17:39:59;0.83;;;0.60;;
13487;SDS011;6816;48.506;9.050;2023-05-10T17:42:59;0.73;;;0.60;;
13487;SDS011;6816;48.506;9.050;2023-05-10T17:46:00;3.73;;;0.50;;
13487;SDS011;6816;48.506;9.050;2023-05-10T17:49:01;0.70;;;0.70;;
13487;SDS011;6816;48.506;9.050;2023-05-10T17:52:01;0.60;;;0.40;;
13487;SDS011;6816;48.506;9.050;2023-05-10T17:55:02;0.73;;;0.70;;
13487;SDS011;6816;48.506;9.050;2023-05-10T17:58:03;0.90;;;0.70;;
13487;SDS011;6816;48.506;9.050;2023-05-10T18:01:04;0.40;;;0.40;;
13487;SDS011;6816;48.506;9.050;2023-05-10T18:04:04;0.40;;;0.40;;
13487;SDS011;6816;48.506;9.050;2023-05-10T18:07:05;0.77;;;0.57;;
13487;SDS011;6816;48.506;9.050;2023-05-10T18:10:06;1.10;;;0.50;;
13487;SDS011;6816;48.506;9.050;2023-05-10T18:13:07;1.73;;;0.70;;
13487;SDS011;6816;48.506;9.050;2023-05-10T18:16:08;0.63;;;0.53;;
13487;SDS011;6816;48.506;9.050;2023-05-10T18:19:11;0.50;;;0.50;;
13487;SDS011;6816;48.506;9.050;2023-05-10T18:22:12;0.70;;;0.50;;
13487;SDS011;6816;48.506;9.050;2023-05-10T18:25:12;2.20;;;0.70;;
13487;SDS011;6816;48.506;9.050;2023-05-10T18:28:13;1.00;;;0.57;;
13487;SDS011;6816;48.506;9.050;2023-05-10T18:31:13;1.70;;;0.50;;
13487;SDS011;6816;48.506;9.050;2023-05-10T18:34:15;2.60;;;0.60;;
13487;SDS011;6816;48.506;9.050;2023-05-10T18:37:15;0.93;;;0.70;;
13487;SDS011;6816;48.506;9.050;2023-05-10T18:40:17;1.20;;;0.63;;
13487;SDS011;6816;48.506;9.050;2023-05-10T18:43:18;0.97;;;0.63;;
13487;SDS011;6816;48.506;9.050;2023-05-10T18:46:19;1.07;;;0.80;;
13487;SDS011;6816;48.506;9.050;2023-05-10T18:49:19;13.00;;;1.23;;
13487;SDS011;6816;48.506;9.050;2023-05-10T18:52:20;0.50;;;0.50;;
13487;SDS011;6816;48.506;9.050;2023-05-10T18:55:22;2.50;;;0.70;;
13487;SDS011;6816;48.506;9.050;2023-05-10T18:58:27;1.67;;;0.60;;
13487;SDS011;6816;48.506;9.050;2023-05-10T19:01:28;0.50;;;0.50;;
13487;SDS011;6816;48.506;9.050;2023-05-10T19:04:29;1.77;;;0.60;;
13487;SDS011;6816;48.506;9.050;2023-05-10T19:07:30;0.90;;;0.60;;
13487;SDS011;6816;48.506;9.050;2023-05-10T19:10:31;0.97;;;0.50;;
13487;SDS011;6816;48.506;9.050;2023-05-10T19:13:31;2.50;;;0.60;;
13487;SDS011;6816;48.506;9.050;2023-05-10T19:16:33;2.33;;;0.60;;
13487;SDS011;6816;48.506;9.050;2023-05-10T19:19:34;0.80;;;0.70;;
13487;SDS011;6816;48.506;9.050;2023-05-10T19:22:34;0.80;;;0.50;;